createdAt,value
2024-02-10T00:02:17.261Z,98570.03
2024-02-10T00:04:44.126Z,98569.63
2024-02-10T00:07:11.110Z,98572.91
2024-02-10T00:09:38.883Z,98574.34
2024-02-10T00:12:07.048Z,98572.25
2024-02-10T00:14:35.465Z,98567.66
2024-02-10T00:17:04.410Z,98574.16
2024-02-10T00:19:30.964Z,98573.16
2024-02-10T00:21:57.935Z,98562.88
2024-02-10T00:24:27.770Z,98564.50
2024-02-10T00:26:54.374Z,98561.88
2024-02-10T00:29:24.572Z,98558.69
2024-02-10T00:31:51.152Z,98565.16
2024-02-10T00:34:17.688Z,98560.84
2024-02-10T00:36:45.793Z,98561.06
2024-02-10T00:39:13.881Z,98560.03
2024-02-10T00:41:40.331Z,98570.16
2024-02-10T00:44:06.734Z,98562.44
2024-02-10T00:46:33.305Z,98571.59
2024-02-10T00:48:59.824Z,98579.28
2024-02-10T00:51:31.157Z,98568.53
2024-02-10T00:53:57.646Z,98571.16
2024-02-10T00:56:25.625Z,98564.06
2024-02-10T00:58:52.197Z,98577.06
2024-02-10T01:01:21.989Z,98562.88
2024-02-10T01:03:49.688Z,98570.97
2024-02-10T01:06:17.933Z,98562.25
2024-02-10T01:08:49.860Z,98573.78
2024-02-10T01:11:24.872Z,98574.16
2024-02-10T01:13:51.946Z,98568.63
2024-02-10T01:16:19.376Z,98570.38
2024-02-10T01:18:49.945Z,98572.56
2024-02-10T01:21:16.869Z,98572.78
2024-02-10T01:23:43.807Z,98578.41
2024-02-10T01:26:13.240Z,98570.06
2024-02-10T01:28:41.022Z,98573.13
2024-02-10T01:31:07.535Z,98576.03
2024-02-10T01:33:34.851Z,98577.84
2024-02-10T01:36:04.453Z,98583.47
2024-02-10T01:38:31.837Z,98582.66
2024-02-10T01:40:58.307Z,98576.78
2024-02-10T01:43:24.799Z,98582.03
2024-02-10T01:45:51.517Z,98576.78
2024-02-10T01:48:19.731Z,98576.78
2024-02-10T01:50:48.222Z,98578.41
2024-02-10T01:53:14.825Z,98579.00
2024-02-10T01:55:42.944Z,98578.03
2024-02-10T01:58:12.101Z,98577.66
2024-02-10T02:00:39.702Z,98585.38
2024-02-10T02:03:06.261Z,98579.09
2024-02-10T02:05:34.226Z,98587.81
2024-02-10T02:08:05.654Z,98578.28
2024-02-10T02:10:33.143Z,98580.91
2024-02-10T02:12:59.676Z,98578.94
2024-02-10T02:15:31.254Z,98574.28
2024-02-10T02:17:58.833Z,98566.63
2024-02-10T02:20:29.788Z,98567.66
2024-02-10T02:22:56.642Z,98565.19
2024-02-10T02:25:24.376Z,98561.47
2024-02-10T02:27:50.862Z,98568.75
2024-02-10T02:30:17.697Z,98570.38
2024-02-10T02:32:44.406Z,98570.03
2024-02-10T02:35:11.073Z,98567.59
2024-02-10T02:37:44.475Z,98573.66
2024-02-10T02:40:16.095Z,98568.38
2024-02-10T02:42:42.725Z,98571.84
2024-02-10T02:45:11.786Z,98566.38
2024-02-10T02:47:38.715Z,98562.75
2024-02-10T02:50:10.198Z,98563.19
2024-02-10T02:52:37.816Z,98563.34
2024-02-10T02:55:05.146Z,98564.75
2024-02-10T02:57:34.889Z,98568.81
2024-02-10T03:00:01.460Z,98568.00
2024-02-10T03:02:31.498Z,98561.53
2024-02-10T03:04:58.021Z,98566.00
2024-02-10T03:07:31.385Z,98555.84
2024-02-10T03:09:57.886Z,98561.09
2024-02-10T03:12:24.293Z,98555.22
2024-02-10T03:14:50.924Z,98559.03
2024-02-10T03:17:17.370Z,98549.06
2024-02-10T03:19:47.204Z,98554.50
2024-02-10T03:22:14.268Z,98541.91
2024-02-10T03:24:43.285Z,98540.09
2024-02-10T03:27:09.751Z,98541.91
2024-02-10T03:29:36.199Z,98544.16
2024-02-10T03:32:05.075Z,98545.59
2024-02-10T03:34:31.565Z,98539.16
2024-02-10T03:36:58.076Z,98542.41
2024-02-10T03:39:25.474Z,98542.41
2024-02-10T03:41:53.155Z,98542.41
2024-02-10T03:44:23.761Z,98543.63
2024-02-10T03:46:54.844Z,98533.63
2024-02-10T03:49:21.798Z,98543.53
2024-02-10T03:51:48.320Z,98540.09
2024-02-10T03:54:15.047Z,98545.97
2024-02-10T03:56:48.244Z,98540.25
2024-02-10T03:59:16.219Z,98543.09
2024-02-10T04:01:48.506Z,98554.81
2024-02-10T04:04:15.218Z,98558.47
2024-02-10T04:06:41.819Z,98557.66
2024-02-10T04:09:08.497Z,98562.91
2024-02-10T04:11:35.302Z,98557.19
2024-02-10T04:14:01.976Z,98557.19
2024-02-10T04:16:28.843Z,98567.72
2024-02-10T04:18:55.555Z,98564.47
2024-02-10T04:21:22.150Z,98566.72
2024-02-10T04:23:48.553Z,98555.00
2024-02-10T04:26:15.456Z,98561.72
2024-02-10T04:28:41.950Z,98564.16
2024-02-10T04:31:08.848Z,98553.44
2024-02-10T04:33:35.614Z,98562.97
2024-02-10T04:36:02.754Z,98559.34
2024-02-10T04:38:29.295Z,98569.22
2024-02-10T04:40:58.346Z,98570.50
2024-02-10T04:43:24.856Z,98573.13
2024-02-10T04:45:51.334Z,98566.66
2024-02-10T04:48:21.201Z,98569.50
2024-02-10T04:50:48.159Z,98565.84
2024-02-10T04:53:16.715Z,98560.59
2024-02-10T04:55:43.490Z,98562.66
2024-02-10T04:58:10.343Z,98570.03
2024-02-10T05:00:36.782Z,98566.31
2024-02-10T05:03:04.521Z,98565.50
2024-02-10T05:05:31.163Z,98565.50
2024-02-10T05:07:58.503Z,98570.75
2024-02-10T05:10:25.943Z,98570.50
2024-02-10T05:12:53.374Z,98572.69
2024-02-10T05:15:23.950Z,98568.88
2024-02-10T05:17:51.880Z,98563.59
2024-02-10T05:20:20.682Z,98570.50
2024-02-10T05:22:49.383Z,98571.50
2024-02-10T05:25:16.689Z,98578.41
2024-02-10T05:27:46.742Z,98574.75
2024-02-10T05:30:25.832Z,98594.19
2024-02-10T05:32:53.814Z,98584.22
2024-02-10T05:35:21.588Z,98599.19
2024-02-10T05:37:54.947Z,98590.66
2024-02-10T05:40:22.585Z,98595.75
2024-02-10T05:42:51.179Z,98599.19
2024-02-10T05:45:21.704Z,98599.19
2024-02-10T05:47:50.874Z,98598.19
2024-02-10T05:50:23.736Z,98594.56
2024-02-10T05:52:52.545Z,98598.19
2024-02-10T05:55:28.325Z,98601.00
2024-02-10T05:58:05.465Z,98603.84
2024-02-10T06:00:33.138Z,98596.94
2024-02-10T06:03:00.683Z,98605.84
2024-02-10T06:05:29.482Z,98599.94
2024-02-10T06:07:58.177Z,98596.31
2024-02-10T06:10:25.447Z,98604.22
2024-02-10T06:12:53.663Z,98604.22
2024-02-10T06:15:21.171Z,98615.72
2024-02-10T06:17:53.977Z,98613.91
2024-02-10T06:20:24.118Z,98618.00
2024-02-10T06:22:53.257Z,98618.00
2024-02-10T06:25:30.101Z,98631.78
2024-02-10T06:28:00.526Z,98630.78
2024-02-10T06:30:34.058Z,98634.22
2024-02-10T06:33:01.168Z,98642.94
2024-02-10T06:35:28.378Z,98639.50
2024-02-10T06:37:56.350Z,98632.59
2024-02-10T06:40:23.985Z,98635.03
2024-02-10T06:42:52.583Z,98635.03
2024-02-10T06:45:23.291Z,98633.41
2024-02-10T06:47:53.298Z,98642.94
2024-02-10T06:50:28.123Z,98641.31
2024-02-10T06:52:55.466Z,98641.69
2024-02-10T06:55:24.839Z,98649.94
2024-02-10T06:57:53.911Z,98643.06
2024-02-10T07:00:20.921Z,98641.00
2024-02-10T07:02:47.865Z,98650.69
2024-02-10T07:05:18.674Z,98657.94
2024-02-10T07:07:48.032Z,98660.78
2024-02-10T07:10:15.931Z,98659.56
2024-02-10T07:12:43.791Z,98664.84
2024-02-10T07:15:15.374Z,98659.97
2024-02-10T07:17:44.600Z,98668.03
2024-02-10T07:20:22.398Z,98666.56
2024-02-10T07:22:56.704Z,98673.66
2024-02-10T07:25:24.194Z,98680.91
2024-02-10T07:27:52.130Z,98674.56
2024-02-10T07:30:19.641Z,98673.56
2024-02-10T07:32:46.790Z,98671.94
2024-02-10T07:35:14.058Z,98684.09
2024-02-10T07:37:41.049Z,98677.56
2024-02-10T07:40:08.412Z,98691.34
2024-02-10T07:42:37.671Z,98686.09
2024-02-10T07:45:04.540Z,98690.63
2024-02-10T07:47:31.115Z,98692.25
2024-02-10T07:49:59.636Z,98700.97
2024-02-10T07:52:32.152Z,98692.88
2024-02-10T07:54:59.305Z,98697.81
2024-02-10T07:57:26.677Z,98685.91
2024-02-10T07:59:54.498Z,98696.09
2024-02-10T08:02:26.874Z,98700.97
2024-02-10T08:04:55.648Z,98695.97
2024-02-10T08:07:23.526Z,98695.25
2024-02-10T08:09:52.888Z,98696.16
2024-02-10T08:12:24.243Z,98701.03
2024-02-10T08:14:52.066Z,98707.78
2024-02-10T08:17:21.647Z,98711.84
2024-02-10T08:19:52.253Z,98711.94
2024-02-10T08:22:19.856Z,98720.13
2024-02-10T08:24:48.531Z,98715.66
2024-02-10T08:27:17.006Z,98720.94
2024-02-10T08:29:44.282Z,98712.03
2024-02-10T08:32:17.338Z,98712.47
2024-02-10T08:34:44.130Z,98710.47
2024-02-10T08:37:13.325Z,98727.38
2024-02-10T08:39:47.420Z,98717.72
2024-02-10T08:42:15.069Z,98715.97
2024-02-10T08:44:41.884Z,98723.13
2024-02-10T08:47:08.796Z,98722.00
2024-02-10T08:49:39.614Z,98717.88
2024-02-10T08:52:16.618Z,98720.81
2024-02-10T08:54:44.442Z,98734.63
2024-02-10T08:57:11.289Z,98732.19
2024-02-10T08:59:42.466Z,98727.72
2024-02-10T09:02:09.507Z,98735.28
2024-02-10T09:04:37.968Z,98734.63
2024-02-10T09:07:04.563Z,98737.91
2024-02-10T09:09:31.544Z,98739.97
2024-02-10T09:11:57.959Z,98745.69
2024-02-10T09:14:24.513Z,98742.09
2024-02-10T09:16:51.032Z,98744.19
2024-02-10T09:19:22.099Z,98743.03
2024-02-10T09:21:55.580Z,98740.66
2024-02-10T09:24:26.852Z,98748.56
2024-02-10T09:26:59.605Z,98745.53
2024-02-10T09:29:26.820Z,98744.19
2024-02-10T09:31:53.988Z,98752.97
2024-02-10T09:34:22.185Z,98766.78
2024-02-10T09:36:48.972Z,98753.47
2024-02-10T09:39:15.491Z,98765.25
2024-02-10T09:41:42.637Z,98754.34
2024-02-10T09:44:13.123Z,98757.59
2024-02-10T09:46:40.291Z,98762.47
2024-02-10T09:49:18.623Z,98753.38
2024-02-10T09:51:45.897Z,98771.66
2024-02-10T09:54:16.329Z,98758.03
2024-02-10T09:56:44.684Z,98764.13
2024-02-10T09:59:28.056Z,98761.09
2024-02-10T10:02:00.801Z,98759.25
2024-02-10T10:04:27.512Z,98763.72
2024-02-10T10:06:54.335Z,98763.38
2024-02-10T10:09:21.395Z,98772.75
2024-02-10T10:11:50.122Z,98773.00
2024-02-10T10:14:20.630Z,98776.03
2024-02-10T10:16:58.893Z,98774.03
2024-02-10T10:19:30.256Z,98774.06
2024-02-10T10:21:57.878Z,98773.72
2024-02-10T10:24:26.252Z,98784.38
2024-02-10T10:26:57.210Z,98781.88
2024-02-10T10:29:24.402Z,98783.50
2024-02-10T10:31:52.826Z,98783.50
2024-02-10T10:34:20.417Z,98782.66
2024-02-10T10:36:53.313Z,98779.00
2024-02-10T10:39:22.427Z,98780.47
2024-02-10T10:41:49.086Z,98782.56
2024-02-10T10:44:15.979Z,98784.22
2024-02-10T10:46:42.847Z,98770.69
2024-02-10T10:49:12.707Z,98773.56
2024-02-10T10:52:00.846Z,98768.50
2024-02-10T10:54:35.138Z,98777.25
2024-02-10T10:57:06.844Z,98777.22
2024-02-10T10:59:37.120Z,98776.44
2024-02-10T11:02:08.982Z,98777.47
2024-02-10T11:04:35.823Z,98781.34
2024-02-10T11:07:12.390Z,98779.09
2024-02-10T11:09:48.865Z,98777.28
2024-02-10T11:12:16.378Z,98770.84
2024-02-10T11:14:54.001Z,98772.47
2024-02-10T11:17:21.361Z,98768.81
2024-02-10T11:20:12.213Z,98769.88
2024-02-10T11:22:41.514Z,98758.72
2024-02-10T11:25:16.642Z,98765.88
2024-02-10T11:27:47.353Z,98760.81
2024-02-10T11:30:14.135Z,98756.34
2024-02-10T11:32:49.920Z,98762.88
2024-02-10T11:35:16.946Z,98755.94
2024-02-10T11:37:43.669Z,98761.03
2024-02-10T11:40:16.389Z,98756.16
2024-02-10T11:42:44.083Z,98764.28
2024-02-10T11:45:10.662Z,98753.69
2024-02-10T11:47:37.430Z,98755.09
2024-02-10T11:50:05.278Z,98757.13
2024-02-10T11:52:33.357Z,98758.56
2024-02-10T11:55:00.041Z,98750.22
2024-02-10T11:57:28.535Z,98748.81
2024-02-10T11:59:56.921Z,98747.41
2024-02-10T12:02:24.698Z,98744.91
2024-02-10T12:04:51.876Z,98742.69
2024-02-10T12:07:18.769Z,98750.03
2024-02-10T12:09:45.179Z,98739.44
2024-02-10T12:12:13.690Z,98737.56
2024-02-10T12:14:40.996Z,98736.19
2024-02-10T12:17:07.835Z,98740.75
2024-02-10T12:19:37.755Z,98735.69
2024-02-10T12:22:06.592Z,98731.44
2024-02-10T12:24:33.179Z,98731.25
2024-02-10T12:26:59.664Z,98730.63
2024-02-10T12:29:29.696Z,98724.72
2024-02-10T12:31:56.224Z,98726.13
2024-02-10T12:34:22.682Z,98739.47
2024-02-10T12:36:49.231Z,98737.06
2024-02-10T12:39:16.905Z,98729.59
2024-02-10T12:41:46.473Z,98736.94
2024-02-10T12:44:13.138Z,98730.03
2024-02-10T12:46:39.896Z,98729.44
2024-02-10T12:49:09.703Z,98730.66
2024-02-10T12:51:36.841Z,98716.59
2024-02-10T12:54:03.591Z,98730.88
2024-02-10T12:56:31.006Z,98736.38
2024-02-10T12:58:58.305Z,98729.25
2024-02-10T13:01:31.958Z,98738.59
2024-02-10T13:04:03.769Z,98740.06
2024-02-10T13:06:32.101Z,98738.59
2024-02-10T13:08:59.774Z,98740.06
2024-02-10T13:11:26.612Z,98735.78
2024-02-10T13:13:56.350Z,98737.19
2024-02-10T13:16:23.166Z,98738.44
2024-02-10T13:18:49.804Z,98738.00
2024-02-10T13:21:18.512Z,98739.25
2024-02-10T13:23:45.387Z,98754.31
2024-02-10T13:26:14.706Z,98739.25
2024-02-10T13:28:42.886Z,98750.63
2024-02-10T13:31:09.900Z,98746.16
2024-02-10T13:33:40.503Z,98743.72
2024-02-10T13:36:15.592Z,98745.75
2024-02-10T13:39:00.759Z,98738.00
2024-02-10T13:41:45.538Z,98751.44
2024-02-10T13:44:30.473Z,98742.09
2024-02-10T13:47:15.409Z,98745.94
2024-02-10T13:50:03.880Z,98742.09
2024-02-10T13:52:48.999Z,98744.91
2024-02-10T13:55:33.932Z,98746.97
2024-02-10T13:58:12.841Z,98735.13
2024-02-10T14:00:41.798Z,98746.16
2024-02-10T14:03:12.638Z,98738.41
2024-02-10T14:05:54.549Z,98735.97
2024-02-10T14:08:38.238Z,98736.38
2024-02-10T14:11:20.879Z,98739.63
2024-02-10T14:13:52.006Z,98738.44
2024-02-10T14:16:28.257Z,98729.84
2024-02-10T14:18:54.782Z,98736.38
2024-02-10T14:21:30.203Z,98740.88
2024-02-10T14:23:56.847Z,98735.97
2024-02-10T14:26:38.588Z,98744.91
2024-02-10T14:29:07.976Z,98746.56
2024-02-10T14:31:44.812Z,98743.09
2024-02-10T14:34:16.532Z,98750.66
2024-02-10T14:36:52.524Z,98752.69
2024-02-10T14:39:20.417Z,98746.16
2024-02-10T14:41:47.354Z,98751.84
2024-02-10T14:44:14.062Z,98760.63
2024-02-10T14:46:44.412Z,98755.50
2024-02-10T14:49:17.372Z,98753.69
2024-02-10T14:51:43.987Z,98756.75
2024-02-10T14:54:11.307Z,98751.84
2024-02-10T14:56:39.626Z,98750.63
2024-02-10T14:59:06.780Z,98745.13
2024-02-10T15:01:35.341Z,98743.91
2024-02-10T15:04:07.256Z,98744.09
2024-02-10T15:06:36.437Z,98743.69
2024-02-10T15:09:03.542Z,98744.72
2024-02-10T15:11:30.312Z,98737.97
2024-02-10T15:13:56.968Z,98747.72
2024-02-10T15:16:24.831Z,98739.56
2024-02-10T15:18:54.330Z,98736.31
2024-02-10T15:21:21.951Z,98734.47
2024-02-10T15:23:51.621Z,98735.25
2024-02-10T15:26:21.524Z,98745.22
2024-02-10T15:28:48.973Z,98749.06
2024-02-10T15:31:20.421Z,98745.41
2024-02-10T15:33:57.961Z,98752.09
2024-02-10T15:36:28.149Z,98749.22
2024-02-10T15:39:01.055Z,98751.25
2024-02-10T15:41:28.289Z,98746.34
2024-02-10T15:43:54.743Z,98753.06
2024-02-10T15:46:21.190Z,98750.16
2024-02-10T15:48:54.650Z,98736.50
2024-02-10T15:51:22.220Z,98746.66
2024-02-10T15:53:48.717Z,98748.88
2024-02-10T15:56:15.231Z,98738.91
2024-02-10T15:58:50.417Z,98746.19
2024-02-10T16:01:18.646Z,98753.91
2024-02-10T16:03:45.195Z,98752.66
2024-02-10T16:06:11.904Z,98755.72
2024-02-10T16:08:50.546Z,98757.09
2024-02-10T16:11:17.671Z,98756.25
2024-02-10T16:13:45.657Z,98751.31
2024-02-10T16:16:17.730Z,98748.47
2024-02-10T16:18:47.501Z,98748.84
2024-02-10T16:21:27.032Z,98765.47
2024-02-10T16:23:54.702Z,98757.28
2024-02-10T16:26:21.500Z,98756.06
2024-02-10T16:28:51.647Z,98748.34
2024-02-10T16:31:20.000Z,98751.97
2024-02-10T16:33:48.310Z,98745.44
2024-02-10T16:36:19.851Z,98743.81
2024-02-10T16:38:46.291Z,98746.00
2024-02-10T16:41:19.988Z,98740.50
2024-02-10T16:43:46.706Z,98740.88
2024-02-10T16:46:17.514Z,98747.38
2024-02-10T16:48:48.740Z,98750.56
2024-02-10T16:51:33.638Z,98740.38
2024-02-10T16:54:05.892Z,98750.72
2024-02-10T16:56:35.729Z,98747.00
2024-02-10T16:59:03.694Z,98745.94
2024-02-10T17:01:31.712Z,98745.06
2024-02-10T17:03:58.743Z,98746.44
2024-02-10T17:06:25.326Z,98752.09
2024-02-10T17:08:51.818Z,98742.66
2024-02-10T17:11:18.310Z,98751.59
2024-02-10T17:13:47.428Z,98752.13
2024-02-10T17:16:16.451Z,98743.19
2024-02-10T17:18:43.033Z,98745.56
2024-02-10T17:21:09.546Z,98751.19
2024-02-10T17:23:35.989Z,98753.16
2024-02-10T17:26:08.585Z,98748.72
2024-02-10T17:28:35.330Z,98749.53
2024-02-10T17:31:01.851Z,98753.16
2024-02-10T17:33:28.304Z,98750.72
2024-02-10T17:35:55.008Z,98754.38
2024-02-10T17:38:24.902Z,98755.53
2024-02-10T17:40:51.392Z,98758.56
2024-02-10T17:43:19.246Z,98760.94
2024-02-10T17:45:46.137Z,98761.03
2024-02-10T17:48:23.685Z,98768.69
2024-02-10T17:50:51.649Z,98762.22
2024-02-10T17:53:23.984Z,98771.31
2024-02-10T17:55:56.574Z,98773.31
2024-02-10T17:58:24.379Z,98767.06
2024-02-10T18:00:52.809Z,98769.97
2024-02-10T18:03:20.943Z,98768.56
2024-02-10T18:05:48.547Z,98767.94
2024-02-10T18:08:17.387Z,98767.94
2024-02-10T18:10:43.823Z,98772.84
2024-02-10T18:13:10.381Z,98776.47
2024-02-10T18:15:37.120Z,98773.84
2024-02-10T18:18:03.848Z,98775.47
2024-02-10T18:20:30.556Z,98765.59
2024-02-10T18:22:57.751Z,98768.84
2024-02-10T18:25:25.357Z,98776.75
2024-02-10T18:27:54.459Z,98769.09
2024-02-10T18:30:24.484Z,98762.81
2024-02-10T18:32:51.523Z,98765.28
2024-02-10T18:35:25.353Z,98769.72
2024-02-10T18:37:55.943Z,98771.34
2024-02-10T18:40:26.638Z,98775.00
2024-02-10T18:42:58.151Z,98781.91
2024-02-10T18:45:25.287Z,98778.03
2024-02-10T18:47:52.537Z,98780.66
2024-02-10T18:50:20.172Z,98781.81
2024-02-10T18:52:47.834Z,98782.84
2024-02-10T18:55:20.110Z,98783.03
2024-02-10T18:57:47.488Z,98783.38
2024-02-10T19:00:20.267Z,98791.03
2024-02-10T19:02:50.275Z,98791.19
2024-02-10T19:05:18.472Z,98791.41
2024-02-10T19:07:45.755Z,98791.78
2024-02-10T19:10:12.435Z,98788.06
2024-02-10T19:12:38.991Z,98787.59
2024-02-10T19:15:09.819Z,98780.25
2024-02-10T19:17:39.565Z,98773.78
2024-02-10T19:20:07.279Z,98776.88
2024-02-10T19:22:36.207Z,98771.44
2024-02-10T19:25:16.787Z,98774.06
2024-02-10T19:27:43.573Z,98773.78
2024-02-10T19:30:10.937Z,98776.41
2024-02-10T19:32:41.607Z,98775.78
2024-02-10T19:35:22.063Z,98774.16
2024-02-10T19:37:50.204Z,98776.81
2024-02-10T19:40:18.024Z,98765.59
2024-02-10T19:42:45.628Z,98778.97
2024-02-10T19:45:14.887Z,98776.88
2024-02-10T19:47:42.803Z,98780.50
2024-02-10T19:50:10.256Z,98778.25
2024-02-10T19:52:39.115Z,98787.69
2024-02-10T19:55:05.752Z,98782.97
2024-02-10T19:57:33.787Z,98777.41
2024-02-10T20:00:00.458Z,98784.34
2024-02-10T20:02:29.782Z,98783.53
2024-02-10T20:04:56.315Z,98784.69
2024-02-10T20:07:22.850Z,98779.81
2024-02-10T20:09:49.484Z,98785.69
2024-02-10T20:12:19.134Z,98789.34
2024-02-10T20:14:45.728Z,98788.03
2024-02-10T20:17:12.881Z,98789.53
2024-02-10T20:19:39.905Z,98792.59
2024-02-10T20:22:10.028Z,98796.78
2024-02-10T20:24:38.404Z,98793.41
2024-02-10T20:27:09.355Z,98797.03
2024-02-10T20:29:38.652Z,98791.78
2024-02-10T20:32:08.747Z,98785.34
2024-02-10T20:34:35.722Z,98786.16
2024-02-10T20:37:06.141Z,98778.25
2024-02-10T20:39:34.497Z,98787.78
2024-02-10T20:42:01.106Z,98784.78
2024-02-10T20:44:27.828Z,98784.78
2024-02-10T20:46:57.528Z,98780.50
2024-02-10T20:49:24.624Z,98786.97
2024-02-10T20:51:56.007Z,98791.44
2024-02-10T20:54:22.577Z,98782.13
2024-02-10T20:56:50.643Z,98782.13
2024-02-10T20:59:19.825Z,98787.59
2024-02-10T21:01:46.364Z,98788.59
2024-02-10T21:04:14.052Z,98786.16
2024-02-10T21:06:44.942Z,98795.06
2024-02-10T21:09:14.109Z,98798.31
2024-02-10T21:11:41.618Z,98789.59
2024-02-10T21:14:15.109Z,98780.50
2024-02-10T21:16:43.006Z,98783.63
2024-02-10T21:19:10.366Z,98787.06
2024-02-10T21:21:42.349Z,98781.78
2024-02-10T21:24:09.919Z,98781.78
2024-02-10T21:26:37.115Z,98785.44
2024-02-10T21:29:06.825Z,98781.78
2024-02-10T21:31:37.410Z,98782.59
2024-02-10T21:34:05.932Z,98783.81
2024-02-10T21:36:35.386Z,98782.13
2024-02-10T21:39:06.044Z,98777.69
2024-02-10T21:41:32.518Z,98778.88
2024-02-10T21:43:59.037Z,98778.88
2024-02-10T21:46:27.517Z,98775.63
2024-02-10T21:48:54.229Z,98773.19
2024-02-10T21:51:20.982Z,98772.19
2024-02-10T21:53:47.425Z,98772.34
2024-02-10T21:56:14.937Z,98765.44
2024-02-10T21:58:51.514Z,98761.78
2024-02-10T22:01:19.331Z,98758.34
2024-02-10T22:03:46.109Z,98764.81
2024-02-10T22:06:13.024Z,98756.91
2024-02-10T22:08:39.591Z,98757.72
2024-02-10T22:11:06.494Z,98762.16
2024-02-10T22:13:33.289Z,98761.78
2024-02-10T22:16:00.894Z,98763.25
2024-02-10T22:18:30.438Z,98759.44
2024-02-10T22:20:58.430Z,98759.44
2024-02-10T22:23:24.918Z,98761.25
2024-02-10T22:25:51.575Z,98762.88
2024-02-10T22:28:18.003Z,98760.44
2024-02-10T22:30:44.393Z,98763.69
2024-02-10T22:33:11.632Z,98753.00
2024-02-10T22:35:38.519Z,98761.06
2024-02-10T22:38:08.389Z,98752.19
2024-02-10T22:40:41.456Z,98753.34
2024-02-10T22:43:10.813Z,98751.09
2024-02-10T22:45:38.348Z,98746.00
2024-02-10T22:48:11.087Z,98747.81
2024-02-10T22:50:44.483Z,98752.25
2024-02-10T22:53:14.105Z,98751.63
2024-02-10T22:55:44.647Z,98740.47
2024-02-10T22:58:11.976Z,98741.47
2024-02-10T23:00:46.983Z,98749.53
2024-02-10T23:03:15.651Z,98744.28
2024-02-10T23:05:42.780Z,98750.72
2024-02-10T23:08:13.787Z,98751.94
2024-02-10T23:10:43.218Z,98762.28
2024-02-10T23:13:16.335Z,98752.56
2024-02-10T23:15:43.983Z,98752.75
2024-02-10T23:18:11.373Z,98750.09
2024-02-10T23:20:42.327Z,98742.38
2024-02-10T23:23:14.128Z,98745.00
2024-02-10T23:25:44.725Z,98749.44
2024-02-10T23:28:17.877Z,98742.56
2024-02-10T23:30:46.324Z,98737.28
2024-02-10T23:33:13.081Z,98738.28
2024-02-10T23:35:43.195Z,98731.59
2024-02-10T23:38:14.410Z,98734.84
2024-02-10T23:40:43.774Z,98725.50
2024-02-10T23:43:13.582Z,98718.56
2024-02-10T23:45:41.113Z,98713.50
2024-02-10T23:48:10.793Z,98716.31
2024-02-10T23:50:37.970Z,98712.88
2024-02-10T23:53:10.967Z,98719.31
2024-02-10T23:55:39.172Z,98717.88
2024-02-10T23:58:05.886Z,98711.78
